sensor_id;sensor_type;location;lat;lon;timestamp;P1;durP1;ratioP1;P2;durP2;ratioP2
9729;SDS011;4904;49.152;11.004;2023-09-30T00:00:56;9.38;;;5.72;;
9729;SDS011;4904;49.152;11.004;2023-09-30T00:03:23;11.75;;;5.97;;
9729;SDS011;4904;49.152;11.004;2023-09-30T00:05:50;10.65;;;6.28;;
9729;SDS011;4904;49.152;11.004;2023-09-30T00:08:18;11.40;;;6.15;;
9729;SDS011;4904;49.152;11.004;2023-09-30T00:10:45;11.85;;;6.10;;
9729;SDS011;4904;49.152;11.004;2023-09-30T00:13:13;15.70;;;6.40;;
9729;SDS011;4904;49.152;11.004;2023-09-30T00:15:40;10.45;;;5.90;;
9729;SDS011;4904;49.152;11.004;2023-09-30T00:18:07;12.02;;;5.72;;
9729;SDS011;4904;49.152;11.004;2023-09-30T00:20:34;11.40;;;5.95;;
9729;SDS011;4904;49.152;11.004;2023-09-30T00:23:01;10.95;;;6.00;;
9729;SDS011;4904;49.152;11.004;2023-09-30T00:25:32;12.05;;;6.40;;
9729;SDS011;4904;49.152;11.004;2023-09-30T00:28:04;10.95;;;5.68;;
9729;SDS011;4904;49.152;11.004;2023-09-30T00:30:31;10.38;;;5.93;;
9729;SDS011;4904;49.152;11.004;2023-09-30T00:32:58;10.30;;;6.30;;
9729;SDS011;4904;49.152;11.004;2023-09-30T00:35:25;11.25;;;6.50;;
9729;SDS011;4904;49.152;11.004;2023-09-30T00:37:52;12.98;;;6.18;;
9729;SDS011;4904;49.152;11.004;2023-09-30T00:40:19;11.30;;;6.53;;
9729;SDS011;4904;49.152;11.004;2023-09-30T00:42:49;11.32;;;6.90;;
9729;SDS011;4904;49.152;11.004;2023-09-30T00:45:16;10.88;;;6.25;;
9729;SDS011;4904;49.152;11.004;2023-09-30T00:47:43;11.73;;;6.00;;
9729;SDS011;4904;49.152;11.004;2023-09-30T00:50:10;10.50;;;6.25;;
9729;SDS011;4904;49.152;11.004;2023-09-30T00:52:38;10.55;;;6.15;;
9729;SDS011;4904;49.152;11.004;2023-09-30T00:55:07;13.50;;;6.57;;
9729;SDS011;4904;49.152;11.004;2023-09-30T00:57:35;13.10;;;6.82;;
9729;SDS011;4904;49.152;11.004;2023-09-30T01:00:07;14.48;;;7.05;;
9729;SDS011;4904;49.152;11.004;2023-09-30T01:02:37;10.68;;;6.15;;
9729;SDS011;4904;49.152;11.004;2023-09-30T01:05:06;12.48;;;6.65;;
9729;SDS011;4904;49.152;11.004;2023-09-30T01:07:33;11.43;;;6.55;;
9729;SDS011;4904;49.152;11.004;2023-09-30T01:10:00;11.40;;;6.57;;
9729;SDS011;4904;49.152;11.004;2023-09-30T01:12:28;13.35;;;6.65;;
9729;SDS011;4904;49.152;11.004;2023-09-30T01:14:57;11.40;;;7.00;;
9729;SDS011;4904;49.152;11.004;2023-09-30T01:17:26;10.55;;;6.93;;
9729;SDS011;4904;49.152;11.004;2023-09-30T01:19:54;15.50;;;7.32;;
9729;SDS011;4904;49.152;11.004;2023-09-30T01:22:24;12.88;;;6.78;;
9729;SDS011;4904;49.152;11.004;2023-09-30T01:24:53;12.93;;;6.47;;
9729;SDS011;4904;49.152;11.004;2023-09-30T01:27:20;11.50;;;6.63;;
9729;SDS011;4904;49.152;11.004;2023-09-30T01:29:48;11.27;;;6.53;;
9729;SDS011;4904;49.152;11.004;2023-09-30T01:32:15;11.75;;;6.60;;
9729;SDS011;4904;49.152;11.004;2023-09-30T01:34:42;12.40;;;6.93;;
9729;SDS011;4904;49.152;11.004;2023-09-30T01:37:09;11.68;;;6.85;;
9729;SDS011;4904;49.152;11.004;2023-09-30T01:39:37;10.88;;;6.57;;
9729;SDS011;4904;49.152;11.004;2023-09-30T01:42:04;12.40;;;6.95;;
9729;SDS011;4904;49.152;11.004;2023-09-30T01:44:31;12.52;;;6.65;;
9729;SDS011;4904;49.152;11.004;2023-09-30T01:46:59;12.57;;;6.82;;
9729;SDS011;4904;49.152;11.004;2023-09-30T01:49:26;15.30;;;7.20;;
9729;SDS011;4904;49.152;11.004;2023-09-30T01:51:53;11.65;;;6.20;;
9729;SDS011;4904;49.152;11.004;2023-09-30T01:54:20;12.98;;;6.55;;
9729;SDS011;4904;49.152;11.004;2023-09-30T01:56:48;12.05;;;6.13;;
9729;SDS011;4904;49.152;11.004;2023-09-30T01:59:16;10.00;;;5.60;;
9729;SDS011;4904;49.152;11.004;2023-09-30T02:01:43;10.82;;;6.10;;
9729;SDS011;4904;49.152;11.004;2023-09-30T02:04:11;13.73;;;6.38;;
9729;SDS011;4904;49.152;11.004;2023-09-30T02:06:40;12.27;;;6.70;;
9729;SDS011;4904;49.152;11.004;2023-09-30T02:09:07;10.13;;;6.05;;
9729;SDS011;4904;49.152;11.004;2023-09-30T02:11:34;11.75;;;5.93;;
9729;SDS011;4904;49.152;11.004;2023-09-30T02:14:03;12.40;;;6.40;;
9729;SDS011;4904;49.152;11.004;2023-09-30T02:16:31;12.13;;;5.72;;
9729;SDS011;4904;49.152;11.004;2023-09-30T02:18:58;12.65;;;6.43;;
9729;SDS011;4904;49.152;11.004;2023-09-30T02:21:25;11.60;;;6.18;;
9729;SDS011;4904;49.152;11.004;2023-09-30T02:23:53;11.43;;;5.63;;
9729;SDS011;4904;49.152;11.004;2023-09-30T02:26:23;10.00;;;5.53;;
9729;SDS011;4904;49.152;11.004;2023-09-30T02:28:52;12.52;;;6.22;;
9729;SDS011;4904;49.152;11.004;2023-09-30T02:31:21;9.68;;;5.50;;
9729;SDS011;4904;49.152;11.004;2023-09-30T02:33:49;8.70;;;5.10;;
9729;SDS011;4904;49.152;11.004;2023-09-30T02:36:16;7.97;;;4.97;;
9729;SDS011;4904;49.152;11.004;2023-09-30T02:38:42;8.27;;;5.15;;
9729;SDS011;4904;49.152;11.004;2023-09-30T02:41:11;8.45;;;5.40;;
9729;SDS011;4904;49.152;11.004;2023-09-30T02:43:38;8.30;;;4.80;;
9729;SDS011;4904;49.152;11.004;2023-09-30T02:46:05;8.95;;;5.03;;
9729;SDS011;4904;49.152;11.004;2023-09-30T02:48:36;8.52;;;5.15;;
9729;SDS011;4904;49.152;11.004;2023-09-30T02:51:03;8.48;;;5.18;;
9729;SDS011;4904;49.152;11.004;2023-09-30T02:53:30;8.27;;;4.63;;
9729;SDS011;4904;49.152;11.004;2023-09-30T02:55:57;8.07;;;4.65;;
9729;SDS011;4904;49.152;11.004;2023-09-30T02:58:25;8.00;;;4.70;;
9729;SDS011;4904;49.152;11.004;2023-09-30T03:00:52;7.65;;;4.53;;
9729;SDS011;4904;49.152;11.004;2023-09-30T03:03:19;10.13;;;5.00;;
9729;SDS011;4904;49.152;11.004;2023-09-30T03:05:48;9.07;;;5.55;;
9729;SDS011;4904;49.152;11.004;2023-09-30T03:08:15;10.70;;;4.80;;
9729;SDS011;4904;49.152;11.004;2023-09-30T03:10:42;7.60;;;4.72;;
9729;SDS011;4904;49.152;11.004;2023-09-30T03:13:09;7.88;;;5.07;;
9729;SDS011;4904;49.152;11.004;2023-09-30T03:15:37;9.10;;;4.90;;
9729;SDS011;4904;49.152;11.004;2023-09-30T03:18:04;9.32;;;4.82;;
9729;SDS011;4904;49.152;11.004;2023-09-30T03:20:31;8.23;;;4.93;;
9729;SDS011;4904;49.152;11.004;2023-09-30T03:22:59;7.82;;;4.50;;
9729;SDS011;4904;49.152;11.004;2023-09-30T03:25:29;8.05;;;4.80;;
9729;SDS011;4904;49.152;11.004;2023-09-30T03:27:57;8.23;;;4.75;;
9729;SDS011;4904;49.152;11.004;2023-09-30T03:30:24;8.27;;;4.72;;
9729;SDS011;4904;49.152;11.004;2023-09-30T03:32:51;8.38;;;5.25;;
9729;SDS011;4904;49.152;11.004;2023-09-30T03:35:18;8.48;;;4.50;;
9729;SDS011;4904;49.152;11.004;2023-09-30T03:37:46;6.13;;;4.03;;
9729;SDS011;4904;49.152;11.004;2023-09-30T03:40:15;8.77;;;3.97;;
9729;SDS011;4904;49.152;11.004;2023-09-30T03:42:45;6.45;;;3.90;;
9729;SDS011;4904;49.152;11.004;2023-09-30T03:45:14;4.47;;;2.90;;
9729;SDS011;4904;49.152;11.004;2023-09-30T03:47:42;4.07;;;2.80;;
9729;SDS011;4904;49.152;11.004;2023-09-30T03:50:10;3.17;;;2.20;;
9729;SDS011;4904;49.152;11.004;2023-09-30T03:52:40;2.40;;;1.80;;
9729;SDS011;4904;49.152;11.004;2023-09-30T03:55:09;2.38;;;1.88;;
9729;SDS011;4904;49.152;11.004;2023-09-30T03:57:38;1.73;;;1.52;;
9729;SDS011;4904;49.152;11.004;2023-09-30T04:00:06;1.63;;;1.50;;
9729;SDS011;4904;49.152;11.004;2023-09-30T04:02:36;3.58;;;1.50;;
9729;SDS011;4904;49.152;11.004;2023-09-30T04:05:03;1.77;;;1.60;;
9729;SDS011;4904;49.152;11.004;2023-09-30T04:07:32;1.67;;;1.48;;
9729;SDS011;4904;49.152;11.004;2023-09-30T04:10:01;1.00;;;0.90;;
9729;SDS011;4904;49.152;11.004;2023-09-30T04:12:29;1.10;;;1.00;;
9729;SDS011;4904;49.152;11.004;2023-09-30T04:14:59;0.90;;;0.90;;
9729;SDS011;4904;49.152;11.004;2023-09-30T04:17:25;0.90;;;0.90;;
9729;SDS011;4904;49.152;11.004;2023-09-30T04:19:53;0.80;;;0.80;;
9729;SDS011;4904;49.152;11.004;2023-09-30T04:22:20;0.75;;;0.75;;
9729;SDS011;4904;49.152;11.004;2023-09-30T04:24:49;0.77;;;0.77;;
9729;SDS011;4904;49.152;11.004;2023-09-30T04:27:17;0.80;;;0.80;;
9729;SDS011;4904;49.152;11.004;2023-09-30T04:29:43;1.02;;;0.90;;
9729;SDS011;4904;49.152;11.004;2023-09-30T04:32:12;0.60;;;0.60;;
9729;SDS011;4904;49.152;11.004;2023-09-30T04:34:39;0.77;;;0.77;;
9729;SDS011;4904;49.152;11.004;2023-09-30T04:37:05;0.90;;;0.90;;
9729;SDS011;4904;49.152;11.004;2023-09-30T04:39:34;0.93;;;0.90;;
9729;SDS011;4904;49.152;11.004;2023-09-30T04:42:01;0.85;;;0.85;;
9729;SDS011;4904;49.152;11.004;2023-09-30T04:44:29;0.98;;;0.98;;
9729;SDS011;4904;49.152;11.004;2023-09-30T04:46:56;0.80;;;0.80;;
9729;SDS011;4904;49.152;11.004;2023-09-30T04:49:24;0.82;;;0.82;;
9729;SDS011;4904;49.152;11.004;2023-09-30T04:51:51;0.80;;;0.80;;
9729;SDS011;4904;49.152;11.004;2023-09-30T04:54:18;0.88;;;0.88;;
9729;SDS011;4904;49.152;11.004;2023-09-30T04:56:46;0.90;;;0.90;;
9729;SDS011;4904;49.152;11.004;2023-09-30T04:59:13;1.02;;;0.90;;
9729;SDS011;4904;49.152;11.004;2023-09-30T05:01:40;1.20;;;0.95;;
9729;SDS011;4904;49.152;11.004;2023-09-30T05:04:07;0.90;;;0.90;;
9729;SDS011;4904;49.152;11.004;2023-09-30T05:06:36;1.40;;;1.30;;
9729;SDS011;4904;49.152;11.004;2023-09-30T05:09:03;1.60;;;1.23;;
9729;SDS011;4904;49.152;11.004;2023-09-30T05:11:32;1.40;;;1.30;;
9729;SDS011;4904;49.152;11.004;2023-09-30T05:14:00;2.05;;;1.40;;
9729;SDS011;4904;49.152;11.004;2023-09-30T05:16:30;1.58;;;1.27;;
9729;SDS011;4904;49.152;11.004;2023-09-30T05:18:57;1.50;;;1.40;;
9729;SDS011;4904;49.152;11.004;2023-09-30T05:21:24;2.83;;;1.60;;
9729;SDS011;4904;49.152;11.004;2023-09-30T05:23:53;1.60;;;1.45;;
9729;SDS011;4904;49.152;11.004;2023-09-30T05:26:19;2.33;;;1.40;;
9729;SDS011;4904;49.152;11.004;2023-09-30T05:28:46;2.00;;;1.55;;
9729;SDS011;4904;49.152;11.004;2023-09-30T05:31:13;2.08;;;1.60;;
9729;SDS011;4904;49.152;11.004;2023-09-30T05:33:40;4.50;;;2.00;;
9729;SDS011;4904;49.152;11.004;2023-09-30T05:36:07;3.90;;;1.80;;
9729;SDS011;4904;49.152;11.004;2023-09-30T05:38:34;1.90;;;1.80;;
9729;SDS011;4904;49.152;11.004;2023-09-30T05:41:03;2.22;;;1.67;;
9729;SDS011;4904;49.152;11.004;2023-09-30T05:43:31;2.63;;;1.65;;
9729;SDS011;4904;49.152;11.004;2023-09-30T05:45:58;1.45;;;1.33;;
9729;SDS011;4904;49.152;11.004;2023-09-30T05:48:25;1.85;;;1.40;;
9729;SDS011;4904;49.152;11.004;2023-09-30T05:50:52;1.88;;;1.40;;
9729;SDS011;4904;49.152;11.004;2023-09-30T05:53:19;1.70;;;1.60;;
9729;SDS011;4904;49.152;11.004;2023-09-30T05:55:46;1.63;;;1.30;;
9729;SDS011;4904;49.152;11.004;2023-09-30T05:58:15;2.00;;;1.40;;
9729;SDS011;4904;49.152;11.004;2023-09-30T06:00:42;2.42;;;1.85;;
9729;SDS011;4904;49.152;11.004;2023-09-30T06:03:09;2.38;;;1.67;;
9729;SDS011;4904;49.152;11.004;2023-09-30T06:05:38;2.00;;;1.85;;
9729;SDS011;4904;49.152;11.004;2023-09-30T06:08:07;2.13;;;1.90;;
9729;SDS011;4904;49.152;11.004;2023-09-30T06:10:35;2.80;;;2.40;;
9729;SDS011;4904;49.152;11.004;2023-09-30T06:13:03;3.25;;;2.22;;
9729;SDS011;4904;49.152;11.004;2023-09-30T06:15:32;5.07;;;2.50;;
9729;SDS011;4904;49.152;11.004;2023-09-30T06:17:59;4.07;;;2.08;;
9729;SDS011;4904;49.152;11.004;2023-09-30T06:20:26;3.15;;;2.45;;
9729;SDS011;4904;49.152;11.004;2023-09-30T06:22:55;2.92;;;2.28;;
9729;SDS011;4904;49.152;11.004;2023-09-30T06:25:23;2.83;;;2.25;;
9729;SDS011;4904;49.152;11.004;2023-09-30T06:27:50;4.40;;;2.60;;
9729;SDS011;4904;49.152;11.004;2023-09-30T06:30:17;4.43;;;2.70;;
9729;SDS011;4904;49.152;11.004;2023-09-30T06:32:47;3.78;;;2.67;;
9729;SDS011;4904;49.152;11.004;2023-09-30T06:35:14;3.22;;;2.40;;
9729;SDS011;4904;49.152;11.004;2023-09-30T06:37:42;3.95;;;2.95;;
9729;SDS011;4904;49.152;11.004;2023-09-30T06:40:10;4.03;;;2.70;;
9729;SDS011;4904;49.152;11.004;2023-09-30T06:42:38;3.67;;;2.67;;
9729;SDS011;4904;49.152;11.004;2023-09-30T06:45:08;5.68;;;2.75;;
9729;SDS011;4904;49.152;11.004;2023-09-30T06:47:37;3.90;;;2.65;;
9729;SDS011;4904;49.152;11.004;2023-09-30T06:50:09;3.72;;;2.83;;
9729;SDS011;4904;49.152;11.004;2023-09-30T06:52:41;4.85;;;2.92;;
9729;SDS011;4904;49.152;11.004;2023-09-30T06:55:10;5.50;;;3.33;;
9729;SDS011;4904;49.152;11.004;2023-09-30T06:57:41;3.30;;;2.53;;
9729;SDS011;4904;49.152;11.004;2023-09-30T07:00:09;4.60;;;2.80;;
9729;SDS011;4904;49.152;11.004;2023-09-30T07:02:38;5.47;;;2.90;;
9729;SDS011;4904;49.152;11.004;2023-09-30T07:05:07;5.57;;;2.90;;
9729;SDS011;4904;49.152;11.004;2023-09-30T07:07:38;8.57;;;3.38;;
9729;SDS011;4904;49.152;11.004;2023-09-30T07:10:07;5.72;;;3.05;;
9729;SDS011;4904;49.152;11.004;2023-09-30T07:12:34;7.53;;;2.65;;
9729;SDS011;4904;49.152;11.004;2023-09-30T07:15:02;7.53;;;3.25;;
9729;SDS011;4904;49.152;11.004;2023-09-30T07:17:30;3.97;;;2.70;;
9729;SDS011;4904;49.152;11.004;2023-09-30T07:19:57;9.50;;;3.50;;
9729;SDS011;4904;49.152;11.004;2023-09-30T07:22:26;7.45;;;3.20;;
9729;SDS011;4904;49.152;11.004;2023-09-30T07:24:53;7.43;;;3.10;;
9729;SDS011;4904;49.152;11.004;2023-09-30T07:27:20;5.22;;;3.03;;
9729;SDS011;4904;49.152;11.004;2023-09-30T07:29:47;5.38;;;2.90;;
9729;SDS011;4904;49.152;11.004;2023-09-30T07:32:16;5.25;;;3.00;;
9729;SDS011;4904;49.152;11.004;2023-09-30T07:34:43;3.80;;;2.88;;
9729;SDS011;4904;49.152;11.004;2023-09-30T07:37:10;8.00;;;3.40;;
9729;SDS011;4904;49.152;11.004;2023-09-30T07:39:40;5.35;;;2.80;;
9729;SDS011;4904;49.152;11.004;2023-09-30T07:42:08;5.65;;;3.45;;
9729;SDS011;4904;49.152;11.004;2023-09-30T07:44:35;4.43;;;3.33;;
9729;SDS011;4904;49.152;11.004;2023-09-30T07:47:03;5.43;;;3.15;;
9729;SDS011;4904;49.152;11.004;2023-09-30T07:49:31;5.65;;;3.50;;
9729;SDS011;4904;49.152;11.004;2023-09-30T07:51:58;7.95;;;3.25;;
9729;SDS011;4904;49.152;11.004;2023-09-30T07:54:25;5.85;;;2.92;;
9729;SDS011;4904;49.152;11.004;2023-09-30T07:56:53;5.70;;;3.00;;
9729;SDS011;4904;49.152;11.004;2023-09-30T07:59:20;4.80;;;3.15;;
9729;SDS011;4904;49.152;11.004;2023-09-30T08:01:48;3.97;;;2.80;;
9729;SDS011;4904;49.152;11.004;2023-09-30T08:04:15;8.68;;;3.10;;
9729;SDS011;4904;49.152;11.004;2023-09-30T08:06:42;7.30;;;3.63;;
9729;SDS011;4904;49.152;11.004;2023-09-30T08:09:09;7.18;;;3.70;;
9729;SDS011;4904;49.152;11.004;2023-09-30T08:11:38;5.75;;;3.55;;
9729;SDS011;4904;49.152;11.004;2023-09-30T08:14:06;5.70;;;3.42;;
9729;SDS011;4904;49.152;11.004;2023-09-30T08:16:34;5.28;;;3.50;;
9729;SDS011;4904;49.152;11.004;2023-09-30T08:19:02;6.90;;;3.60;;
9729;SDS011;4904;49.152;11.004;2023-09-30T08:21:29;7.40;;;3.60;;
9729;SDS011;4904;49.152;11.004;2023-09-30T08:23:57;3.97;;;3.15;;
9729;SDS011;4904;49.152;11.004;2023-09-30T08:26:25;7.22;;;4.00;;
9729;SDS011;4904;49.152;11.004;2023-09-30T08:28:52;5.88;;;3.17;;
9729;SDS011;4904;49.152;11.004;2023-09-30T08:31:20;7.45;;;3.10;;
9729;SDS011;4904;49.152;11.004;2023-09-30T08:33:48;5.72;;;3.17;;
9729;SDS011;4904;49.152;11.004;2023-09-30T08:36:16;3.53;;;2.88;;
9729;SDS011;4904;49.152;11.004;2023-09-30T08:38:43;6.60;;;3.65;;
9729;SDS011;4904;49.152;11.004;2023-09-30T08:41:11;4.75;;;3.55;;
9729;SDS011;4904;49.152;11.004;2023-09-30T08:43:50;6.20;;;3.22;;
9729;SDS011;4904;49.152;11.004;2023-09-30T08:46:22;6.70;;;3.95;;
9729;SDS011;4904;49.152;11.004;2023-09-30T08:48:51;6.07;;;3.85;;
9729;SDS011;4904;49.152;11.004;2023-09-30T08:51:19;7.18;;;3.65;;
9729;SDS011;4904;49.152;11.004;2023-09-30T08:53:47;6.15;;;3.88;;
9729;SDS011;4904;49.152;11.004;2023-09-30T08:56:16;7.53;;;3.75;;
9729;SDS011;4904;49.152;11.004;2023-09-30T08:58:45;7.18;;;4.47;;
9729;SDS011;4904;49.152;11.004;2023-09-30T09:01:13;7.15;;;3.95;;
9729;SDS011;4904;49.152;11.004;2023-09-30T09:03:44;7.43;;;3.78;;
9729;SDS011;4904;49.152;11.004;2023-09-30T09:06:12;6.82;;;3.75;;
9729;SDS011;4904;49.152;11.004;2023-09-30T09:08:39;8.43;;;3.97;;
9729;SDS011;4904;49.152;11.004;2023-09-30T09:11:06;6.10;;;4.05;;
9729;SDS011;4904;49.152;11.004;2023-09-30T09:13:45;8.45;;;3.78;;
9729;SDS011;4904;49.152;11.004;2023-09-30T09:16:14;7.25;;;3.40;;
9729;SDS011;4904;49.152;11.004;2023-09-30T09:18:44;9.20;;;4.10;;
9729;SDS011;4904;49.152;11.004;2023-09-30T09:21:13;7.25;;;3.83;;
9729;SDS011;4904;49.152;11.004;2023-09-30T09:23:42;4.93;;;3.40;;
9729;SDS011;4904;49.152;11.004;2023-09-30T09:26:10;5.88;;;3.35;;
9729;SDS011;4904;49.152;11.004;2023-09-30T09:28:39;6.18;;;3.22;;
9729;SDS011;4904;49.152;11.004;2023-09-30T09:31:20;5.82;;;3.35;;
9729;SDS011;4904;49.152;11.004;2023-09-30T09:33:50;7.10;;;3.30;;
9729;SDS011;4904;49.152;11.004;2023-09-30T09:36:18;6.13;;;3.80;;
9729;SDS011;4904;49.152;11.004;2023-09-30T09:38:46;5.95;;;3.55;;
9729;SDS011;4904;49.152;11.004;2023-09-30T09:41:15;5.53;;;3.15;;
9729;SDS011;4904;49.152;11.004;2023-09-30T09:43:43;6.32;;;3.80;;
9729;SDS011;4904;49.152;11.004;2023-09-30T09:46:10;5.72;;;3.80;;
9729;SDS011;4904;49.152;11.004;2023-09-30T09:48:37;6.28;;;3.55;;
9729;SDS011;4904;49.152;11.004;2023-09-30T09:51:06;5.60;;;2.90;;
9729;SDS011;4904;49.152;11.004;2023-09-30T09:53:38;5.43;;;3.42;;
9729;SDS011;4904;49.152;11.004;2023-09-30T09:56:07;5.82;;;3.40;;
9729;SDS011;4904;49.152;11.004;2023-09-30T09:58:36;8.15;;;3.35;;
9729;SDS011;4904;49.152;11.004;2023-09-30T10:01:06;5.93;;;3.25;;
9729;SDS011;4904;49.152;11.004;2023-09-30T10:03:35;5.57;;;3.35;;
9729;SDS011;4904;49.152;11.004;2023-09-30T10:06:02;10.05;;;3.58;;
9729;SDS011;4904;49.152;11.004;2023-09-30T10:08:33;6.93;;;3.30;;
9729;SDS011;4904;49.152;11.004;2023-09-30T10:11:04;5.70;;;3.40;;
9729;SDS011;4904;49.152;11.004;2023-09-30T10:13:51;5.38;;;3.13;;
9729;SDS011;4904;49.152;11.004;2023-09-30T10:19:14;6.05;;;3.00;;
9729;SDS011;4904;49.152;11.004;2023-09-30T10:24:45;5.78;;;3.00;;
9729;SDS011;4904;49.152;11.004;2023-09-30T10:27:28;8.10;;;3.95;;
9729;SDS011;4904;49.152;11.004;2023-09-30T10:30:07;5.10;;;3.38;;
9729;SDS011;4904;49.152;11.004;2023-09-30T10:35:47;6.40;;;3.15;;
9729;SDS011;4904;49.152;11.004;2023-09-30T10:41:07;7.30;;;3.70;;
9729;SDS011;4904;49.152;11.004;2023-09-30T10:43:35;5.45;;;3.45;;
9729;SDS011;4904;49.152;11.004;2023-09-30T10:46:03;8.20;;;4.05;;
9729;SDS011;4904;49.152;11.004;2023-09-30T10:48:51;6.07;;;3.80;;
9729;SDS011;4904;49.152;11.004;2023-09-30T10:51:18;5.25;;;3.70;;
9729;SDS011;4904;49.152;11.004;2023-09-30T10:53:47;5.50;;;3.40;;
9729;SDS011;4904;49.152;11.004;2023-09-30T10:56:18;6.63;;;3.72;;
9729;SDS011;4904;49.152;11.004;2023-09-30T10:58:46;5.78;;;3.45;;
9729;SDS011;4904;49.152;11.004;2023-09-30T11:01:15;6.18;;;3.50;;
9729;SDS011;4904;49.152;11.004;2023-09-30T11:03:43;6.63;;;3.88;;
9729;SDS011;4904;49.152;11.004;2023-09-30T11:06:12;6.53;;;3.97;;
9729;SDS011;4904;49.152;11.004;2023-09-30T11:08:44;7.07;;;4.00;;
9729;SDS011;4904;49.152;11.004;2023-09-30T11:11:12;6.65;;;4.53;;
9729;SDS011;4904;49.152;11.004;2023-09-30T11:13:41;7.38;;;4.22;;
9729;SDS011;4904;49.152;11.004;2023-09-30T11:16:08;7.60;;;4.43;;
9729;SDS011;4904;49.152;11.004;2023-09-30T11:18:35;5.10;;;4.10;;
9729;SDS011;4904;49.152;11.004;2023-09-30T11:21:04;7.88;;;4.43;;
9729;SDS011;4904;49.152;11.004;2023-09-30T11:23:33;7.90;;;4.30;;
9729;SDS011;4904;49.152;11.004;2023-09-30T11:26:00;5.72;;;3.88;;
9729;SDS011;4904;49.152;11.004;2023-09-30T11:28:35;8.50;;;4.82;;
9729;SDS011;4904;49.152;11.004;2023-09-30T11:31:07;6.70;;;3.97;;
9729;SDS011;4904;49.152;11.004;2023-09-30T11:33:50;6.38;;;4.30;;
9729;SDS011;4904;49.152;11.004;2023-09-30T11:36:18;5.70;;;4.15;;
9729;SDS011;4904;49.152;11.004;2023-09-30T11:38:47;6.57;;;4.22;;
9729;SDS011;4904;49.152;11.004;2023-09-30T11:41:14;6.72;;;4.13;;
9729;SDS011;4904;49.152;11.004;2023-09-30T11:43:57;5.80;;;3.83;;
9729;SDS011;4904;49.152;11.004;2023-09-30T11:46:28;6.32;;;4.03;;
9729;SDS011;4904;49.152;11.004;2023-09-30T11:48:56;7.25;;;4.03;;
9729;SDS011;4904;49.152;11.004;2023-09-30T11:51:25;8.25;;;4.22;;
9729;SDS011;4904;49.152;11.004;2023-09-30T11:53:52;6.28;;;4.38;;
9729;SDS011;4904;49.152;11.004;2023-09-30T11:56:21;5.88;;;4.20;;
9729;SDS011;4904;49.152;11.004;2023-09-30T11:58:54;6.85;;;4.30;;
9729;SDS011;4904;49.152;11.004;2023-09-30T12:01:21;6.60;;;4.57;;
9729;SDS011;4904;49.152;11.004;2023-09-30T12:03:52;6.18;;;4.18;;
9729;SDS011;4904;49.152;11.004;2023-09-30T12:06:21;6.97;;;3.72;;
9729;SDS011;4904;49.152;11.004;2023-09-30T12:08:49;8.07;;;5.03;;
9729;SDS011;4904;49.152;11.004;2023-09-30T12:11:17;6.28;;;4.55;;
9729;SDS011;4904;49.152;11.004;2023-09-30T12:13:44;6.50;;;4.50;;
9729;SDS011;4904;49.152;11.004;2023-09-30T12:16:14;7.57;;;4.13;;
9729;SDS011;4904;49.152;11.004;2023-09-30T12:18:41;6.05;;;4.30;;
9729;SDS011;4904;49.152;11.004;2023-09-30T12:21:10;7.00;;;4.60;;
9729;SDS011;4904;49.152;11.004;2023-09-30T12:23:38;6.32;;;4.35;;
9729;SDS011;4904;49.152;11.004;2023-09-30T12:26:06;6.25;;;4.40;;
9729;SDS011;4904;49.152;11.004;2023-09-30T12:28:33;6.82;;;4.50;;
9729;SDS011;4904;49.152;11.004;2023-09-30T12:31:01;8.55;;;4.57;;
9729;SDS011;4904;49.152;11.004;2023-09-30T12:33:29;7.72;;;4.70;;
9729;SDS011;4904;49.152;11.004;2023-09-30T12:35:57;8.27;;;4.28;;
9729;SDS011;4904;49.152;11.004;2023-09-30T12:38:26;6.15;;;4.13;;
9729;SDS011;4904;49.152;11.004;2023-09-30T12:40:53;7.70;;;4.80;;
9729;SDS011;4904;49.152;11.004;2023-09-30T12:43:21;9.93;;;4.65;;
9729;SDS011;4904;49.152;11.004;2023-09-30T12:45:48;6.65;;;3.88;;
9729;SDS011;4904;49.152;11.004;2023-09-30T12:48:15;7.80;;;4.57;;
9729;SDS011;4904;49.152;11.004;2023-09-30T12:50:42;8.85;;;4.40;;
9729;SDS011;4904;49.152;11.004;2023-09-30T12:53:09;9.23;;;4.85;;
9729;SDS011;4904;49.152;11.004;2023-09-30T12:55:38;6.47;;;4.63;;
9729;SDS011;4904;49.152;11.004;2023-09-30T12:58:06;8.48;;;4.50;;
9729;SDS011;4904;49.152;11.004;2023-09-30T13:00:33;7.78;;;4.70;;
9729;SDS011;4904;49.152;11.004;2023-09-30T13:03:01;6.00;;;4.30;;
9729;SDS011;4904;49.152;11.004;2023-09-30T13:05:28;8.25;;;4.88;;
9729;SDS011;4904;49.152;11.004;2023-09-30T13:07:55;7.43;;;4.80;;
9729;SDS011;4904;49.152;11.004;2023-09-30T13:10:22;7.70;;;4.80;;
9729;SDS011;4904;49.152;11.004;2023-09-30T13:12:52;6.68;;;4.65;;
9729;SDS011;4904;49.152;11.004;2023-09-30T13:15:19;8.65;;;5.00;;
9729;SDS011;4904;49.152;11.004;2023-09-30T13:17:46;7.57;;;4.50;;
9729;SDS011;4904;49.152;11.004;2023-09-30T13:20:14;7.28;;;4.93;;
9729;SDS011;4904;49.152;11.004;2023-09-30T13:22:43;7.25;;;5.05;;
9729;SDS011;4904;49.152;11.004;2023-09-30T13:25:12;7.45;;;4.78;;
9729;SDS011;4904;49.152;11.004;2023-09-30T13:27:40;8.20;;;5.22;;
9729;SDS011;4904;49.152;11.004;2023-09-30T13:30:10;7.50;;;4.93;;
9729;SDS011;4904;49.152;11.004;2023-09-30T13:32:38;7.05;;;4.50;;
9729;SDS011;4904;49.152;11.004;2023-09-30T13:35:05;8.45;;;4.85;;
9729;SDS011;4904;49.152;11.004;2023-09-30T13:37:33;9.80;;;5.35;;
9729;SDS011;4904;49.152;11.004;2023-09-30T13:40:02;7.40;;;4.85;;
9729;SDS011;4904;49.152;11.004;2023-09-30T13:42:33;6.88;;;4.78;;
9729;SDS011;4904;49.152;11.004;2023-09-30T13:45:00;8.70;;;5.70;;
9729;SDS011;4904;49.152;11.004;2023-09-30T13:47:29;7.47;;;5.30;;
9729;SDS011;4904;49.152;11.004;2023-09-30T13:49:56;6.53;;;5.20;;
9729;SDS011;4904;49.152;11.004;2023-09-30T13:52:23;9.07;;;7.28;;
9729;SDS011;4904;49.152;11.004;2023-09-30T13:54:50;8.75;;;5.38;;
9729;SDS011;4904;49.152;11.004;2023-09-30T13:57:17;7.47;;;4.70;;
9729;SDS011;4904;49.152;11.004;2023-09-30T13:59:44;7.20;;;5.22;;
9729;SDS011;4904;49.152;11.004;2023-09-30T14:02:11;10.82;;;4.85;;
9729;SDS011;4904;49.152;11.004;2023-09-30T14:04:39;9.07;;;5.88;;
9729;SDS011;4904;49.152;11.004;2023-09-30T14:07:06;8.05;;;5.50;;
9729;SDS011;4904;49.152;11.004;2023-09-30T14:09:34;8.75;;;6.00;;
9729;SDS011;4904;49.152;11.004;2023-09-30T14:12:01;7.43;;;5.40;;
9729;SDS011;4904;49.152;11.004;2023-09-30T14:14:30;8.80;;;5.38;;
9729;SDS011;4904;49.152;11.004;2023-09-30T14:16:58;9.93;;;5.60;;
9729;SDS011;4904;49.152;11.004;2023-09-30T14:19:32;9.77;;;5.45;;
9729;SDS011;4904;49.152;11.004;2023-09-30T14:22:01;8.68;;;5.20;;
9729;SDS011;4904;49.152;11.004;2023-09-30T14:24:29;7.43;;;5.07;;
9729;SDS011;4904;49.152;11.004;2023-09-30T14:26:57;8.98;;;4.85;;
9729;SDS011;4904;49.152;11.004;2023-09-30T14:29:24;6.75;;;4.95;;
9729;SDS011;4904;49.152;11.004;2023-09-30T14:31:53;8.02;;;5.25;;
9729;SDS011;4904;49.152;11.004;2023-09-30T14:34:22;7.55;;;5.20;;
9729;SDS011;4904;49.152;11.004;2023-09-30T14:36:50;6.18;;;5.25;;
9729;SDS011;4904;49.152;11.004;2023-09-30T14:39:19;7.72;;;4.95;;
9729;SDS011;4904;49.152;11.004;2023-09-30T14:41:46;6.85;;;4.90;;
9729;SDS011;4904;49.152;11.004;2023-09-30T14:44:13;8.25;;;4.85;;
9729;SDS011;4904;49.152;11.004;2023-09-30T14:46:40;8.80;;;5.35;;
9729;SDS011;4904;49.152;11.004;2023-09-30T14:49:09;7.85;;;5.20;;
9729;SDS011;4904;49.152;11.004;2023-09-30T14:51:36;7.05;;;5.22;;
9729;SDS011;4904;49.152;11.004;2023-09-30T14:54:04;7.25;;;5.13;;
9729;SDS011;4904;49.152;11.004;2023-09-30T14:56:33;7.05;;;5.22;;
9729;SDS011;4904;49.152;11.004;2023-09-30T14:59:00;7.63;;;5.20;;
9729;SDS011;4904;49.152;11.004;2023-09-30T15:01:29;9.32;;;5.32;;
9729;SDS011;4904;49.152;11.004;2023-09-30T15:03:56;8.25;;;4.88;;
9729;SDS011;4904;49.152;11.004;2023-09-30T15:06:24;7.55;;;5.93;;
9729;SDS011;4904;49.152;11.004;2023-09-30T15:08:51;8.70;;;5.30;;
9729;SDS011;4904;49.152;11.004;2023-09-30T15:11:19;8.68;;;5.10;;
9729;SDS011;4904;49.152;11.004;2023-09-30T15:13:50;8.18;;;5.63;;
9729;SDS011;4904;49.152;11.004;2023-09-30T15:16:17;8.32;;;5.65;;